Sumifukumaru No.5 — JD3058 — position and weather

sailwx.info

Track history (hours):
 
Tides and Currents Weather Stations Pressure Air Temp Water Temp Dewpoint Dewpoint Depression Visibility Wind Speed Wind Dir Waves Ship Positions

Sumifukumaru No.5

Last reported at 2015-Jan-31 09:13 UTC. Time now 2015-Jan-31 11:44 UTC.
Position N 34°41' E 134°47'.

Length 75 m; draft 4.4 m.

Type: Cargo ship. MMSI: 431001371.

Date/timePositionNaut miles runAvg speedWind from/ knotsBaromVisibWave heightAir tempDewpointWater temp
2015-Jan-31 09:13N 34°41' E 134°47'811.7
2015-Jan-31 08:32N 34°37' E 134°55'9 8.9
2015-Jan-31 07:32N 34°34' E 135°05'19 9.7
2015-Jan-31 05:34N 34°14' E 135°06'1 0.7
2015-Jan-31 04:31N 34°15' E 135°07'0 0.0
2015-Jan-31 03:31N 34°15' E 135°07'0 0.0
2015-Jan-31 02:31N 34°15' E 135°07'0 0.0
2015-Jan-31 01:31N 34°15' E 135°07'0 0.0
2015-Jan-31 00:31N 34°15' E 135°07'0 0.0
2015-Jan-30 23:31N 34°15' E 135°07'0 0.0
2015-Jan-30 22:34N 34°15' E 135°07'0 0.0
2015-Jan-30 21:34N 34°15' E 135°07'0 0.0
2015-Jan-30 20:33N 34°15' E 135°07'0 0.1
2015-Jan-30 19:34N 34°15' E 135°07'0 0.0
2015-Jan-30 18:34N 34°15' E 135°07'0 0.0
2015-Jan-30 17:33N 34°15' E 135°07'0 0.0
2015-Jan-30 16:33N 34°15' E 135°07'0 0.0
2015-Jan-30 15:34N 34°15' E 135°07'0 0.0
2015-Jan-30 14:34N 34°15' E 135°07'0 0.0
2015-Jan-30 13:33N 34°15' E 135°07'0 0.0
2015-Jan-30 12:33N 34°15' E 135°07'0 0.4
2015-Jan-30 11:33N 34°14' E 135°07'1110.3
2015-Jan-30 10:32N 34°24' E 135°03'1212.4
2015-Jan-30 09:33N 34°36' E 135°02'1211.3
2015-Jan-30 08:30N 34°40' E 134°48'0 0.0
2015-Jan-28 23:20N 34°40' E 134°48'910.6
2015-Jan-28 22:32N 34°38' E 134°58'9 9.5
2015-Jan-28 21:33N 34°30' E 135°05'1511.3
2015-Jan-28 20:13N 34°15' E 135°03'4 5.6
2015-Jan-28 19:33N 34°15' E 135°07'0 0.0
2015-Jan-28 18:33N 34°15' E 135°07'0 0.0
2015-Jan-28 17:33N 34°15' E 135°07'0 0.0
2015-Jan-28 16:33N 34°15' E 135°07'0 0.0
2015-Jan-28 15:33N 34°15' E 135°07'0 0.0
2015-Jan-28 14:33N 34°15' E 135°07'0 0.0
2015-Jan-28 13:33N 34°15' E 135°07'1 1.1
2015-Jan-28 12:33N 34°15' E 135°06'0 0.0
2015-Jan-28 11:33N 34°15' E 135°06'0 0.0
2015-Jan-28 10:33N 34°15' E 135°06'2 1.8
2015-Jan-28 09:33N 34°15' E 135°04'1313.1
2015-Jan-28 08:33N 34°27' E 135°11'1413.6
2015-Jan-28 07:33N 34°37' E 135°22'5 4.9
2015-Jan-28 06:27N 34°39' E 135°28'0 0.0
2015-Jan-28 05:29N 34°39' E 135°28'0 0.0
2015-Jan-28 04:32N 34°39' E 135°28'0 0.0
2015-Jan-28 03:31N 34°39' E 135°28'0 0.0
2015-Jan-28 02:33N 34°39' E 135°28'0 0.0
2015-Jan-28 01:32N 34°39' E 135°28'0 0.0
2015-Jan-28 00:33N 34°39' E 135°28'0 0.0
2015-Jan-27 23:29N 34°39' E 135°28'0 0.0
2015-Jan-27 22:25N 34°39' E 135°28'0 0.0
2015-Jan-27 21:24N 34°39' E 135°28'0 0.0
2015-Jan-27 20:06N 34°39' E 135°28'0 0.0
2015-Jan-27 18:33N 34°39' E 135°28'0 0.0
2015-Jan-27 17:32N 34°39' E 135°28'0 0.0
2015-Jan-27 16:32N 34°39' E 135°28'0 0.0
2015-Jan-27 15:32N 34°39' E 135°28'0 0.0
2015-Jan-27 14:31N 34°39' E 135°28'0 0.0
2015-Jan-27 13:33N 34°39' E 135°28'0 0.0
2015-Jan-27 12:33N 34°39' E 135°28'0 0.0
2015-Jan-27 11:29N 34°39' E 135°28'0 0.0
2015-Jan-27 10:29N 34°39' E 135°28'0 0.0
2015-Jan-27 08:04N 34°39' E 135°28'0 0.1
2015-Jan-27 07:33N 34°39' E 135°28'4 4.2
2015-Jan-27 06:33N 34°37' E 135°23'0 0.0
2015-Jan-27 04:33N 34°37' E 135°23'0 0.0
2015-Jan-27 03:33N 34°37' E 135°23'1 0.7
2015-Jan-27 02:33N 34°37' E 135°23'  
2015-Jan-24 22:07N 34°35' E 135°28'4 6.3
2015-Jan-24 21:33N 34°36' E 135°24'1212.2
2015-Jan-24 20:33N 34°35' E 135°09'  
Track history (hours):
 
Tides and Currents Weather Stations Pressure Air Temp Water Temp Dewpoint Dewpoint Depression Visibility Wind Speed Wind Dir Waves Ship Positions

Sumifukumaru No.5

Last reported at 2015-Jan-31 09:13 UTC. Time now 2015-Jan-31 11:44 UTC.
Position N 34°41' E 134°47'.

Length 75 m; draft 4.4 m.

Type: Cargo ship. MMSI: 431001371.

Date/timePositionNaut miles runAvg speedWind from/ knotsBaromVisibWave heightAir tempDewpointWater temp
2015-Jan-31 09:13N 34°41' E 134°47'811.7
2015-Jan-31 08:32N 34°37' E 134°55'9 8.9
2015-Jan-31 07:32N 34°34' E 135°05'19 9.7
2015-Jan-31 05:34N 34°14' E 135°06'1 0.7
2015-Jan-31 04:31N 34°15' E 135°07'0 0.0
2015-Jan-31 03:31N 34°15' E 135°07'0 0.0
2015-Jan-31 02:31N 34°15' E 135°07'0 0.0
2015-Jan-31 01:31N 34°15' E 135°07'0 0.0
2015-Jan-31 00:31N 34°15' E 135°07'0 0.0
2015-Jan-30 23:31N 34°15' E 135°07'0 0.0
2015-Jan-30 22:34N 34°15' E 135°07'0 0.0
2015-Jan-30 21:34N 34°15' E 135°07'0 0.0
2015-Jan-30 20:33N 34°15' E 135°07'0 0.1
2015-Jan-30 19:34N 34°15' E 135°07'0 0.0
2015-Jan-30 18:34N 34°15' E 135°07'0 0.0
2015-Jan-30 17:33N 34°15' E 135°07'0 0.0
2015-Jan-30 16:33N 34°15' E 135°07'0 0.0
2015-Jan-30 15:34N 34°15' E 135°07'0 0.0
2015-Jan-30 14:34N 34°15' E 135°07'0 0.0
2015-Jan-30 13:33N 34°15' E 135°07'0 0.0
2015-Jan-30 12:33N 34°15' E 135°07'0 0.4
2015-Jan-30 11:33N 34°14' E 135°07'1110.3
2015-Jan-30 10:32N 34°24' E 135°03'1212.4
2015-Jan-30 09:33N 34°36' E 135°02'1211.3
2015-Jan-30 08:30N 34°40' E 134°48'0 0.0
2015-Jan-28 23:20N 34°40' E 134°48'910.6
2015-Jan-28 22:32N 34°38' E 134°58'9 9.5
2015-Jan-28 21:33N 34°30' E 135°05'1511.3
2015-Jan-28 20:13N 34°15' E 135°03'4 5.6
2015-Jan-28 19:33N 34°15' E 135°07'0 0.0
2015-Jan-28 18:33N 34°15' E 135°07'0 0.0
2015-Jan-28 17:33N 34°15' E 135°07'0 0.0
2015-Jan-28 16:33N 34°15' E 135°07'0 0.0
2015-Jan-28 15:33N 34°15' E 135°07'0 0.0
2015-Jan-28 14:33N 34°15' E 135°07'0 0.0
2015-Jan-28 13:33N 34°15' E 135°07'1 1.1
2015-Jan-28 12:33N 34°15' E 135°06'0 0.0
2015-Jan-28 11:33N 34°15' E 135°06'0 0.0
2015-Jan-28 10:33N 34°15' E 135°06'2 1.8
2015-Jan-28 09:33N 34°15' E 135°04'1313.1
2015-Jan-28 08:33N 34°27' E 135°11'1413.6
2015-Jan-28 07:33N 34°37' E 135°22'5 4.9
2015-Jan-28 06:27N 34°39' E 135°28'0 0.0
2015-Jan-28 05:29N 34°39' E 135°28'0 0.0
2015-Jan-28 04:32N 34°39' E 135°28'0 0.0
2015-Jan-28 03:31N 34°39' E 135°28'0 0.0
2015-Jan-28 02:33N 34°39' E 135°28'0 0.0
2015-Jan-28 01:32N 34°39' E 135°28'0 0.0
2015-Jan-28 00:33N 34°39' E 135°28'0 0.0
2015-Jan-27 23:29N 34°39' E 135°28'0 0.0
2015-Jan-27 22:25N 34°39' E 135°28'0 0.0
2015-Jan-27 21:24N 34°39' E 135°28'0 0.0
2015-Jan-27 20:06N 34°39' E 135°28'0 0.0
2015-Jan-27 18:33N 34°39' E 135°28'0 0.0
2015-Jan-27 17:32N 34°39' E 135°28'0 0.0
2015-Jan-27 16:32N 34°39' E 135°28'0 0.0
2015-Jan-27 15:32N 34°39' E 135°28'0 0.0
2015-Jan-27 14:31N 34°39' E 135°28'0 0.0
2015-Jan-27 13:33N 34°39' E 135°28'0 0.0
2015-Jan-27 12:33N 34°39' E 135°28'0 0.0
2015-Jan-27 11:29N 34°39' E 135°28'0 0.0
2015-Jan-27 10:29N 34°39' E 135°28'0 0.0
2015-Jan-27 08:04N 34°39' E 135°28'0 0.1
2015-Jan-27 07:33N 34°39' E 135°28'4 4.2
2015-Jan-27 06:33N 34°37' E 135°23'0 0.0
2015-Jan-27 04:33N 34°37' E 135°23'0 0.0
2015-Jan-27 03:33N 34°37' E 135°23'1 0.7
2015-Jan-27 02:33N 34°37' E 135°23'  
2015-Jan-24 22:07N 34°35' E 135°28'4 6.3
2015-Jan-24 21:33N 34°36' E 135°24'1212.2
2015-Jan-24 20:33N 34°35' E 135°09'  

Dump ship's entire track history